createdAt,value
2018-01-02T00:00:10.450Z,96.50
2018-01-02T00:02:39.115Z,96.90
2018-01-02T00:05:07.422Z,96.90
2018-01-02T00:07:35.642Z,96.80
2018-01-02T00:10:04.194Z,96.90
2018-01-02T00:12:33.203Z,96.10
2018-01-02T00:15:02.211Z,95.10
2018-01-02T00:17:30.485Z,95.00
2018-01-02T00:19:58.731Z,95.20
2018-01-02T00:22:26.977Z,94.20
2018-01-02T00:24:55.469Z,94.70
2018-01-02T00:27:23.702Z,93.70
2018-01-02T00:29:52.131Z,93.10
2018-01-02T00:32:20.388Z,93.10
2018-01-02T00:34:48.638Z,92.00
2018-01-02T00:37:16.875Z,90.80
2018-01-02T00:39:45.150Z,90.50
2018-01-02T00:42:13.391Z,90.40
2018-01-02T00:44:41.634Z,90.30
2018-01-02T00:47:09.954Z,89.50
2018-01-02T00:49:38.203Z,89.00
2018-01-02T00:52:06.443Z,88.20
2018-01-02T00:54:35.470Z,87.30
2018-01-02T00:57:03.710Z,87.20
2018-01-02T00:59:32.722Z,86.40
2018-01-02T01:02:01.070Z,86.40
2018-01-02T01:04:29.313Z,85.60
2018-01-02T01:06:57.541Z,85.50
2018-01-02T01:09:26.758Z,83.60
2018-01-02T01:11:55.219Z,83.40
2018-01-02T01:14:24.514Z,83.70
2018-01-02T01:16:53.550Z,83.20
2018-01-02T01:19:21.790Z,83.10
2018-01-02T01:21:50.031Z,83.80
2018-01-02T01:24:18.296Z,83.70
2018-01-02T01:26:46.542Z,84.50
2018-01-02T01:29:14.776Z,85.60
2018-01-02T01:31:43.100Z,85.90
2018-01-02T01:34:11.346Z,86.20
2018-01-02T01:36:39.585Z,84.60
2018-01-02T01:39:08.367Z,84.70
2018-01-02T01:41:36.610Z,84.40
2018-01-02T01:44:04.854Z,83.10
2018-01-02T01:46:34.050Z,82.70
2018-01-02T01:49:02.292Z,84.00
2018-01-02T01:51:30.538Z,86.20
2018-01-02T01:53:59.253Z,88.60
2018-01-02T01:56:27.502Z,89.60
2018-01-02T01:58:55.743Z,90.20
2018-01-02T02:01:24.002Z,91.30
2018-01-02T02:03:52.246Z,92.50
2018-01-02T02:06:20.490Z,92.90
2018-01-02T02:08:49.523Z,95.50
2018-01-02T02:11:18.614Z,95.40
2018-01-02T02:13:47.537Z,96.00
2018-01-02T02:16:16.118Z,96.80
2018-01-02T02:18:44.359Z,96.80
2018-01-02T02:21:12.726Z,97.20
2018-01-02T02:23:40.986Z,96.60
2018-01-02T02:26:10.003Z,97.50
2018-01-02T02:28:38.246Z,97.40
2018-01-02T02:31:06.513Z,96.90
2018-01-02T02:33:35.002Z,97.00
2018-01-02T02:36:03.242Z,96.70
2018-01-02T02:38:31.558Z,98.20
2018-01-02T02:41:07.414Z,98.40
2018-01-02T02:43:35.687Z,98.30
2018-01-02T02:46:04.693Z,98.00
2018-01-02T02:48:33.842Z,98.10
2018-01-02T02:51:02.106Z,98.10
2018-01-02T02:53:30.337Z,98.30
2018-01-02T02:55:58.586Z,97.80
2018-01-02T02:58:27.253Z,97.70
2018-01-02T03:00:55.501Z,98.10
2018-01-02T03:03:23.747Z,97.70
2018-01-02T03:05:52.772Z,96.60
2018-01-02T03:08:21.014Z,96.50
2018-01-02T03:10:50.019Z,97.20
2018-01-02T03:13:19.060Z,96.60
2018-01-02T03:15:47.662Z,96.70
2018-01-02T03:18:15.897Z,97.20
2018-01-02T03:20:44.246Z,97.00
2018-01-02T03:23:17.406Z,96.80
2018-01-02T03:25:45.667Z,96.10
2018-01-02T03:28:13.922Z,95.90
2018-01-02T03:30:42.163Z,96.30
2018-01-02T03:33:10.430Z,96.90
2018-01-02T03:35:38.670Z,96.80
2018-01-02T03:38:06.918Z,96.70
2018-01-02T03:40:35.332Z,96.80
2018-01-02T03:43:03.566Z,97.10
2018-01-02T03:45:31.801Z,97.20
2018-01-02T03:48:00.066Z,96.80
2018-01-02T03:50:28.307Z,97.20
2018-01-02T03:52:56.549Z,96.80
2018-01-02T03:55:25.586Z,96.60
2018-01-02T03:57:53.919Z,96.50
2018-01-02T04:00:22.155Z,96.60
2018-01-02T04:02:50.506Z,96.10
2018-01-02T04:05:19.033Z,96.40
2018-01-02T04:07:47.262Z,96.10
2018-01-02T04:10:15.714Z,96.20
2018-01-02T04:12:44.722Z,95.50
2018-01-02T04:15:15.826Z,94.90
2018-01-02T04:17:44.254Z,94.80
2018-01-02T04:20:12.494Z,94.20
2018-01-02T04:22:40.745Z,94.10
2018-01-02T04:25:09.321Z,93.60
2018-01-02T04:27:37.559Z,93.30
2018-01-02T04:30:06.562Z,91.80
2018-01-02T04:32:34.838Z,91.70
2018-01-02T04:35:03.842Z,91.50
2018-01-02T04:37:32.088Z,91.50
2018-01-02T04:40:00.350Z,91.10
2018-01-02T04:42:28.590Z,90.50
2018-01-02T04:44:56.838Z,90.50
2018-01-02T04:47:25.152Z,90.70
2018-01-02T04:49:53.390Z,89.60
2018-01-02T04:52:21.622Z,89.10
2018-01-02T04:54:49.886Z,88.70
2018-01-02T04:57:18.130Z,88.70
2018-01-02T04:59:46.375Z,87.80
2018-01-02T05:02:15.401Z,88.00
2018-01-02T05:04:43.728Z,87.80
2018-01-02T05:07:11.962Z,87.90
2018-01-02T05:09:40.564Z,88.20
2018-01-02T05:12:08.807Z,87.60
2018-01-02T05:14:37.045Z,87.60
2018-01-02T05:17:05.318Z,88.30
2018-01-02T05:19:33.998Z,87.60
2018-01-02T05:22:02.234Z,88.70
2018-01-02T05:24:30.494Z,88.70
2018-01-02T05:26:58.736Z,88.60
2018-01-02T05:29:26.970Z,88.20
2018-01-02T05:31:55.471Z,87.90
2018-01-02T05:34:23.714Z,87.90
2018-01-02T05:36:51.958Z,87.90
2018-01-02T05:39:20.223Z,86.50
2018-01-02T05:41:48.487Z,86.50
2018-01-02T05:44:16.735Z,86.40
2018-01-02T05:46:44.998Z,85.60
2018-01-02T05:49:13.238Z,86.40
2018-01-02T05:51:41.475Z,85.60
2018-01-02T05:54:09.782Z,85.80
2018-01-02T05:56:38.029Z,85.50
2018-01-02T05:59:06.278Z,84.90
2018-01-02T06:01:34.554Z,85.20
2018-01-02T06:04:02.808Z,86.60
2018-01-02T06:06:34.122Z,87.90
2018-01-02T06:09:02.472Z,89.50
2018-01-02T06:11:30.714Z,90.30
2018-01-02T06:13:58.953Z,90.80
2018-01-02T06:16:27.715Z,91.40
2018-01-02T06:18:56.015Z,91.20
2018-01-02T06:21:24.522Z,91.70
2018-01-02T06:23:52.806Z,91.90
2018-01-02T06:26:22.999Z,92.60
2018-01-02T06:28:51.238Z,92.60
2018-01-02T06:31:19.500Z,91.80
2018-01-02T06:33:47.747Z,92.40
2018-01-02T06:36:15.987Z,92.00
2018-01-02T06:38:44.669Z,92.30
2018-01-02T06:41:12.911Z,92.00
2018-01-02T06:43:41.146Z,91.40
2018-01-02T06:46:09.408Z,91.30
2018-01-02T06:48:37.656Z,91.70
2018-01-02T06:51:05.894Z,91.30
2018-01-02T06:53:34.926Z,91.50
2018-01-02T06:56:03.246Z,91.40
2018-01-02T06:58:31.486Z,91.10
2018-01-02T07:00:59.979Z,92.30
2018-01-02T07:03:28.227Z,92.20
2018-01-02T07:05:56.468Z,94.00
2018-01-02T07:08:24.726Z,93.20
2018-01-02T07:10:52.994Z,93.60
2018-01-02T07:13:21.230Z,93.70
2018-01-02T07:15:49.498Z,92.80
2018-01-02T07:18:18.502Z,91.80
2018-01-02T07:20:46.772Z,91.80
2018-01-02T07:23:16.145Z,91.60
2018-01-02T07:25:44.382Z,91.60
2018-01-02T07:28:12.622Z,92.60
2018-01-02T07:30:41.033Z,92.90
2018-01-02T07:33:09.440Z,92.30
2018-01-02T07:35:37.663Z,93.00
2018-01-02T07:38:06.697Z,92.90
2018-01-02T07:40:34.979Z,92.90
2018-01-02T07:43:03.202Z,93.10
2018-01-02T07:45:31.638Z,93.10
2018-01-02T07:47:59.882Z,94.00
2018-01-02T07:50:28.126Z,94.50
2018-01-02T07:52:56.399Z,94.80
2018-01-02T07:55:24.639Z,94.80
2018-01-02T07:57:52.927Z,94.40
2018-01-02T08:00:21.183Z,94.50
2018-01-02T08:02:49.418Z,93.60
2018-01-02T08:05:17.658Z,95.00
2018-01-02T08:07:46.023Z,93.80
2018-01-02T08:10:14.315Z,93.70
2018-01-02T08:12:42.595Z,94.30
2018-01-02T08:15:11.880Z,93.50
2018-01-02T08:17:40.107Z,93.20
2018-01-02T08:20:09.110Z,93.80
2018-01-02T08:22:37.868Z,93.80
2018-01-02T08:25:07.382Z,93.50
2018-01-02T08:27:36.110Z,93.50
2018-01-02T08:30:04.658Z,93.80
2018-01-02T08:32:32.890Z,93.80
2018-01-02T08:35:01.165Z,93.30
2018-01-02T08:37:29.437Z,93.00
2018-01-02T08:39:57.670Z,92.90
2018-01-02T08:42:26.680Z,93.30
2018-01-02T08:44:54.949Z,93.30
2018-01-02T08:47:23.192Z,93.10
2018-01-02T08:49:51.432Z,93.20
2018-01-02T08:52:19.762Z,93.00
2018-01-02T08:54:48.007Z,92.90
2018-01-02T08:57:16.247Z,93.00
2018-01-02T08:59:44.514Z,92.70
2018-01-02T09:02:12.755Z,92.00
2018-01-02T09:04:41.101Z,92.40
2018-01-02T09:07:09.384Z,93.10
2018-01-02T09:09:38.488Z,94.50
2018-01-02T09:12:06.730Z,94.50
2018-01-02T09:14:55.838Z,94.20
2018-01-02T09:17:24.205Z,94.10
2018-01-02T09:19:52.455Z,94.90
2018-01-02T09:22:20.718Z,95.60
2018-01-02T09:24:48.962Z,95.50
2018-01-02T09:27:17.451Z,95.80
2018-01-02T09:29:46.496Z,95.20
2018-01-02T09:32:14.731Z,95.10
2018-01-02T09:34:42.969Z,95.00
2018-01-02T09:37:11.374Z,94.90
2018-01-02T09:39:39.612Z,94.00
2018-01-02T09:42:07.850Z,94.00
2018-01-02T09:44:36.122Z,93.60
2018-01-02T09:47:04.358Z,94.30
2018-01-02T09:49:32.622Z,94.30
2018-01-02T09:52:00.890Z,92.40
2018-01-02T09:54:29.134Z,92.80
2018-01-02T09:56:57.378Z,90.90
2018-01-02T09:59:25.706Z,92.40
2018-01-02T10:01:53.951Z,90.50
2018-01-02T10:04:22.955Z,90.20
2018-01-02T10:06:51.219Z,90.20
2018-01-02T10:09:20.231Z,90.00
2018-01-02T10:11:48.542Z,89.70
2018-01-02T10:14:16.806Z,88.00
2018-01-02T10:16:45.058Z,89.50
2018-01-02T10:19:13.302Z,90.60
2018-01-02T10:21:41.835Z,91.50
2018-01-02T10:24:11.058Z,92.20
2018-01-02T10:26:39.298Z,92.10
2018-01-02T10:29:07.874Z,92.70
2018-01-02T10:31:36.109Z,92.90
2018-01-02T10:34:04.361Z,93.10
2018-01-02T10:36:32.631Z,93.30
2018-01-02T10:39:00.874Z,92.60
2018-01-02T10:41:29.122Z,92.40
2018-01-02T10:43:58.041Z,92.20
2018-01-02T10:46:26.246Z,91.90
2018-01-02T10:48:54.490Z,91.70
2018-01-02T10:51:22.750Z,90.40
2018-01-02T10:53:51.754Z,91.10
2018-01-02T10:56:20.008Z,91.10
2018-01-02T10:58:48.266Z,90.30
2018-01-02T11:01:22.209Z,90.60
2018-01-02T11:03:50.748Z,89.50
2018-01-02T11:06:18.986Z,89.80
2018-01-02T11:08:47.238Z,90.00
2018-01-02T11:11:20.290Z,89.10
2018-01-02T11:13:48.536Z,87.90
2018-01-02T11:16:16.846Z,87.80
2018-01-02T11:18:45.116Z,87.10
2018-01-02T11:21:13.363Z,89.10
2018-01-02T11:23:42.390Z,83.70
2018-01-02T11:26:10.874Z,83.60
2018-01-02T11:28:39.145Z,85.10
2018-01-02T11:31:07.568Z,84.00
2018-01-02T11:33:35.958Z,82.80
2018-01-02T11:36:04.191Z,81.50
2018-01-02T11:38:32.430Z,81.90
2018-01-02T11:41:00.706Z,83.30
2018-01-02T11:43:28.950Z,81.70
2018-01-02T11:45:57.202Z,81.80
2018-01-02T11:48:25.578Z,80.30
2018-01-02T11:50:53.878Z,80.90
2018-01-02T11:53:22.122Z,81.20
2018-01-02T11:55:50.379Z,81.20
2018-01-02T11:58:18.622Z,81.70
2018-01-02T12:00:46.867Z,80.20
2018-01-02T12:03:15.130Z,79.00
2018-01-02T12:05:43.518Z,79.10
2018-01-02T12:08:11.758Z,77.90
2018-01-02T12:10:40.118Z,78.90
2018-01-02T12:13:08.368Z,77.40
2018-01-02T12:15:36.615Z,78.80
2018-01-02T12:18:05.182Z,79.20
2018-01-02T12:20:33.483Z,74.90
2018-01-02T12:23:01.863Z,75.50
2018-01-02T12:25:30.271Z,73.10
2018-01-02T12:27:58.515Z,71.10
2018-01-02T12:30:26.771Z,68.50
2018-01-02T12:32:55.855Z,66.70
2018-01-02T12:35:24.107Z,60.40
2018-01-02T12:37:53.145Z,56.50
2018-01-02T12:40:21.467Z,56.40
2018-01-02T12:42:50.478Z,54.80
2018-01-02T12:45:19.499Z,53.70
2018-01-02T12:47:47.782Z,53.70
2018-01-02T12:50:16.198Z,53.30
2018-01-02T12:52:44.453Z,53.20
2018-01-02T12:55:12.754Z,54.50
2018-01-02T12:57:41.018Z,55.50
2018-01-02T13:00:09.266Z,56.30
2018-01-02T13:02:37.537Z,56.90
2018-01-02T13:05:05.850Z,58.40
2018-01-02T13:07:34.227Z,58.20
2018-01-02T13:10:02.635Z,59.50
2018-01-02T13:12:32.045Z,58.50
2018-01-02T13:15:00.595Z,58.40
2018-01-02T13:17:29.052Z,58.70
2018-01-02T13:19:57.549Z,58.30
2018-01-02T13:22:25.775Z,59.00
2018-01-02T13:24:54.806Z,58.90
2018-01-02T13:27:23.109Z,58.80
2018-01-02T13:29:51.346Z,59.80
2018-01-02T13:32:19.610Z,58.80
2018-01-02T13:34:48.147Z,59.20
2018-01-02T13:37:16.627Z,59.10
2018-01-02T13:39:45.066Z,59.10
2018-01-02T13:42:13.393Z,58.70
2018-01-02T13:44:41.622Z,56.80
2018-01-02T13:47:09.902Z,55.70
2018-01-02T13:49:38.206Z,55.40
2018-01-02T13:52:06.616Z,54.60
2018-01-02T13:54:35.650Z,54.90
2018-01-02T13:57:03.963Z,55.00
2018-01-02T13:59:32.202Z,55.30
2018-01-02T14:02:00.552Z,55.70
2018-01-02T14:04:28.798Z,56.30
2018-01-02T14:06:58.094Z,57.10
2018-01-02T14:09:26.570Z,58.50
2018-01-02T14:11:57.002Z,59.00
2018-01-02T14:14:25.412Z,58.20
2018-01-02T14:16:54.711Z,58.30
2018-01-02T14:19:23.722Z,59.90
2018-01-02T14:21:52.728Z,60.70
2018-01-02T14:24:21.150Z,60.70
2018-01-02T14:26:49.390Z,62.00
2018-01-02T14:29:17.634Z,62.80
2018-01-02T14:31:45.914Z,63.50
2018-01-02T14:34:14.923Z,64.00
2018-01-02T14:36:43.447Z,63.90
2018-01-02T14:39:11.698Z,63.30
2018-01-02T14:41:39.941Z,63.40
2018-01-02T14:44:08.184Z,62.10
2018-01-02T14:46:37.490Z,61.40
2018-01-02T14:49:05.738Z,61.70
2018-01-02T14:51:34.150Z,61.30
2018-01-02T14:54:02.542Z,61.60
2018-01-02T14:56:30.902Z,62.10
2018-01-02T14:58:59.278Z,62.30
2018-01-02T15:01:27.681Z,62.10
2018-01-02T15:03:56.034Z,62.40
2018-01-02T15:06:24.414Z,63.00
2018-01-02T15:08:52.906Z,63.50
2018-01-02T15:11:21.178Z,64.30
2018-01-02T15:13:49.551Z,65.60
2018-01-02T15:16:17.959Z,65.20
2018-01-02T15:18:46.509Z,65.00
2018-01-02T15:21:14.746Z,65.60
2018-01-02T15:23:43.102Z,65.00
2018-01-02T15:26:13.294Z,65.90
2018-01-02T15:28:41.698Z,65.40
2018-01-02T15:31:11.368Z,66.20
2018-01-02T15:33:39.624Z,66.00
2018-01-02T15:36:10.554Z,65.50
2018-01-02T15:38:39.821Z,64.70
2018-01-02T15:41:08.894Z,65.40
2018-01-02T15:43:37.173Z,64.50
2018-01-02T15:46:05.606Z,64.60
2018-01-02T15:48:33.934Z,65.00
2018-01-02T15:51:02.182Z,65.10
2018-01-02T15:53:30.778Z,65.30
2018-01-02T15:55:59.073Z,65.10
2018-01-02T15:58:27.402Z,66.50
2018-01-02T16:00:55.678Z,66.30
2018-01-02T16:03:25.274Z,67.50
2018-01-02T16:05:55.662Z,67.00
2018-01-02T16:08:23.942Z,67.60
2018-01-02T16:10:52.418Z,67.50
2018-01-02T16:13:20.794Z,67.90
2018-01-02T16:15:49.279Z,67.80
2018-01-02T16:18:17.558Z,69.00
2018-01-02T16:20:49.962Z,69.20
2018-01-02T16:23:18.990Z,68.50
2018-01-02T16:25:47.294Z,68.40
2018-01-02T16:28:15.713Z,69.30
2018-01-02T16:30:46.830Z,70.60
2018-01-02T16:33:15.198Z,70.40
2018-01-02T16:35:45.004Z,72.00
2018-01-02T16:38:13.375Z,71.50
2018-01-02T16:40:42.885Z,72.50
2018-01-02T16:43:11.203Z,72.80
2018-01-02T16:45:40.482Z,71.10
2018-01-02T16:48:08.854Z,71.00
2018-01-02T16:50:37.267Z,70.70
2018-01-02T16:53:06.265Z,70.80
2018-01-02T16:55:37.394Z,71.60
2018-01-02T16:58:05.834Z,71.40
2018-01-02T17:00:34.129Z,72.00
2018-01-02T17:03:03.338Z,72.30
2018-01-02T17:05:31.850Z,72.90
2018-01-02T17:08:01.151Z,72.60
2018-01-02T17:10:29.495Z,72.50
2018-01-02T17:12:57.904Z,73.10
2018-01-02T17:15:27.182Z,72.80
2018-01-02T17:17:55.551Z,72.60
2018-01-02T17:20:24.078Z,71.70
2018-01-02T17:22:53.235Z,73.60
2018-01-02T17:25:21.626Z,73.70
2018-01-02T17:27:50.023Z,73.80
2018-01-02T17:30:20.255Z,75.00
2018-01-02T17:32:48.906Z,74.80
2018-01-02T17:35:21.305Z,74.90
2018-01-02T17:37:50.318Z,73.50
2018-01-02T17:40:18.646Z,73.40
2018-01-02T17:42:48.054Z,73.50
2018-01-02T17:45:16.326Z,75.70
2018-01-02T17:47:44.897Z,76.30
2018-01-02T17:50:13.203Z,76.40
2018-01-02T17:52:42.414Z,75.20
2018-01-02T17:55:10.771Z,75.60
2018-01-02T17:57:41.014Z,75.90
2018-01-02T18:00:10.038Z,75.70
2018-01-02T18:02:39.182Z,75.70
2018-01-02T18:05:08.066Z,74.20
2018-01-02T18:07:37.270Z,77.30
2018-01-02T18:10:05.533Z,76.60
2018-01-02T18:12:33.823Z,76.20
2018-01-02T18:15:02.188Z,75.90
2018-01-02T18:17:30.483Z,75.90
2018-01-02T18:19:58.878Z,75.00
2018-01-02T18:22:28.145Z,74.80
2018-01-02T18:24:57.458Z,74.70
2018-01-02T18:27:25.910Z,73.90
2018-01-02T18:29:54.204Z,73.20
2018-01-02T18:32:22.639Z,73.90
2018-01-02T18:34:50.913Z,74.90
2018-01-02T18:37:19.354Z,75.80
2018-01-02T18:39:51.726Z,75.00
2018-01-02T18:42:20.448Z,74.90
2018-01-02T18:44:49.462Z,75.00
2018-01-02T18:47:17.790Z,74.90
2018-01-02T18:49:46.246Z,76.20
2018-01-02T18:52:15.470Z,75.00
2018-01-02T18:54:43.848Z,75.00
2018-01-02T18:57:12.124Z,73.80
2018-01-02T18:59:40.373Z,74.60
2018-01-02T19:02:09.298Z,75.80
2018-01-02T19:04:37.570Z,75.80
2018-01-02T19:07:06.358Z,75.50
2018-01-02T19:09:34.742Z,75.20
2018-01-02T19:12:03.302Z,75.50
2018-01-02T19:14:31.550Z,76.20
2018-01-02T19:16:59.790Z,76.00
2018-01-02T19:19:28.066Z,77.10
2018-01-02T19:21:57.235Z,76.60
2018-01-02T19:24:25.488Z,76.50
2018-01-02T19:26:53.785Z,77.40
2018-01-02T19:29:24.222Z,77.30
2018-01-02T19:31:52.469Z,76.80
2018-01-02T19:34:21.415Z,77.30
2018-01-02T19:36:50.596Z,77.40
2018-01-02T19:39:18.853Z,77.00
2018-01-02T19:41:47.122Z,76.40
2018-01-02T19:44:15.374Z,77.60
2018-01-02T19:46:43.997Z,78.30
2018-01-02T19:49:13.433Z,77.20
2018-01-02T19:51:41.810Z,76.90
2018-01-02T19:54:10.821Z,78.00
2018-01-02T19:56:40.019Z,76.70
2018-01-02T19:59:08.277Z,76.60
2018-01-02T20:01:36.526Z,76.80
2018-01-02T20:04:04.801Z,77.10
2018-01-02T20:06:33.041Z,78.00
2018-01-02T20:09:01.314Z,77.60
2018-01-02T20:11:29.771Z,77.30
2018-01-02T20:13:58.787Z,79.30
2018-01-02T20:16:27.785Z,79.30
2018-01-02T20:18:56.146Z,79.20
2018-01-02T20:21:25.158Z,76.40
2018-01-02T20:23:53.484Z,76.30
2018-01-02T20:26:21.895Z,77.20
2018-01-02T20:28:50.914Z,78.20
2018-01-02T20:31:20.353Z,78.10
2018-01-02T20:33:49.066Z,76.00
2018-01-02T20:36:17.334Z,75.10
2018-01-02T20:38:45.570Z,75.00
2018-01-02T20:41:14.063Z,74.20
2018-01-02T20:43:42.346Z,73.90
2018-01-02T20:46:10.743Z,73.50
2018-01-02T20:48:39.315Z,74.00
2018-01-02T20:51:07.598Z,73.60
2018-01-02T20:53:35.832Z,75.40
2018-01-02T20:56:04.114Z,73.40
2018-01-02T20:58:32.369Z,73.30
2018-01-02T21:01:01.470Z,73.40
2018-01-02T21:03:30.543Z,74.40
2018-01-02T21:05:59.017Z,74.30
2018-01-02T21:08:27.253Z,74.80
2018-01-02T21:10:56.709Z,74.80
2018-01-02T21:13:25.732Z,75.90
2018-01-02T21:15:54.079Z,75.70
2018-01-02T21:18:22.462Z,76.50
2018-01-02T21:20:53.574Z,74.00
2018-01-02T21:23:21.818Z,73.90
2018-01-02T21:25:50.162Z,73.20
2018-01-02T21:28:19.174Z,73.40
2018-01-02T21:30:47.438Z,73.40
2018-01-02T21:33:18.662Z,75.40
2018-01-02T21:35:46.893Z,75.40
2018-01-02T21:38:16.078Z,75.50
2018-01-02T21:40:44.354Z,75.70
2018-01-02T21:43:12.609Z,76.10
2018-01-02T21:45:41.046Z,74.50
2018-01-02T21:48:09.394Z,73.20
2018-01-02T21:50:40.886Z,74.60
2018-01-02T21:53:09.439Z,75.20
2018-01-02T21:55:37.836Z,75.30
2018-01-02T21:58:06.054Z,77.10
2018-01-02T22:00:35.396Z,76.50
2018-01-02T22:03:04.650Z,76.50
2018-01-02T22:05:34.841Z,78.00
2018-01-02T22:08:03.409Z,77.30
2018-01-02T22:10:31.998Z,78.70
2018-01-02T22:13:00.253Z,80.30
2018-01-02T22:15:28.661Z,84.30
2018-01-02T22:17:57.246Z,82.70
2018-01-02T22:20:25.482Z,83.00
2018-01-02T22:22:54.923Z,83.40
2018-01-02T22:25:25.295Z,83.30
2018-01-02T22:27:54.319Z,82.20
2018-01-02T22:30:22.638Z,82.10
2018-01-02T22:32:51.133Z,81.40
2018-01-02T22:35:19.382Z,82.40
2018-01-02T22:37:47.766Z,82.20
2018-01-02T22:40:16.184Z,81.70
2018-01-02T22:42:44.443Z,82.50
2018-01-02T22:45:12.846Z,81.80
2018-01-02T22:47:41.310Z,80.80
2018-01-02T22:50:09.666Z,81.50
2018-01-02T22:52:37.931Z,80.90
2018-01-02T22:55:06.312Z,81.90
2018-01-02T22:57:34.550Z,82.00
2018-01-02T23:00:02.795Z,83.40
2018-01-02T23:02:31.070Z,82.90
2018-01-02T23:04:59.326Z,83.10
2018-01-02T23:07:27.703Z,84.80
2018-01-02T23:09:57.954Z,83.10
2018-01-02T23:12:26.973Z,83.70
2018-01-02T23:14:56.012Z,83.20
2018-01-02T23:17:24.448Z,83.20
2018-01-02T23:19:52.697Z,82.50
2018-01-02T23:22:23.157Z,83.60
2018-01-02T23:24:51.430Z,83.70
2018-01-02T23:27:19.670Z,83.20
2018-01-02T23:29:48.954Z,83.80
2018-01-02T23:32:17.222Z,83.30
2018-01-02T23:34:45.470Z,84.60
2018-01-02T23:37:13.790Z,84.20
2018-01-02T23:39:42.106Z,83.30
2018-01-02T23:42:10.350Z,84.00
2018-01-02T23:44:40.766Z,83.00
2018-01-02T23:47:09.042Z,83.80
2018-01-02T23:49:37.291Z,83.60
2018-01-02T23:52:05.598Z,82.10
2018-01-02T23:54:34.038Z,82.90
2018-01-02T23:57:02.359Z,82.00
2018-01-02T23:59:30.594Z,81.20
